Time;durP1;ratioP1;P1;durP2;ratioP2;P2;SDS_P1;SDS_P2;PMS_P1;PMS_P2;Temp;Humidity;BMP_temperature;BMP_pressure;BME280_temperature;BME280_humidity;BME280_pressure;Samples;Min_cycle;Max_cycle;Signal;HPM_P1;HPM_P2
2021/01/07 00:00:06;;;;;;;30.83;3.58;;;13.50;99.90;;;;;;5111643;28;20432;-65
2021/01/07 00:02:39;;;;;;;13.90;2.85;;;13.50;99.90;;;;;;5112083;28;20130;-65
2021/01/07 00:05:08;;;;;;;10.30;2.65;;;13.50;99.90;;;;;;5110413;28;20112;-65
2021/01/07 00:07:36;;;;;;;22.85;3.13;;;13.50;99.90;;;;;;5091771;28;20107;-65
2021/01/07 00:10:05;;;;;;;21.58;3.50;;;13.50;99.90;;;;;;5091572;28;20059;-65
2021/01/07 00:12:33;;;;;;;13.90;1.80;;;13.50;99.90;;;;;;5091749;28;20374;-64
2021/01/07 00:15:01;;;;;;;7.22;1.40;;;13.40;99.90;;;;;;5092441;28;20048;-64
2021/01/07 00:17:29;;;;;;;21.55;2.35;;;13.50;99.90;;;;;;5112418;27;20563;-64
2021/01/07 00:19:57;;;;;;;23.50;3.30;;;13.50;99.90;;;;;;5113234;28;20081;-65
2021/01/07 00:22:25;;;;;;;11.13;2.42;;;13.50;99.90;;;;;;5095235;28;20075;-64
2021/01/07 00:24:52;;;;;;;17.85;2.85;;;13.50;99.90;;;;;;5111518;28;20517;-64
2021/01/07 00:27:20;;;;;;;17.83;2.03;;;13.50;99.90;;;;;;5093307;28;20052;-65
2021/01/07 00:29:51;;;;;;;14.38;2.65;;;13.50;99.90;;;;;;5091597;28;20071;-64
2021/01/07 00:32:19;;;;;;;13.70;2.75;;;13.50;99.90;;;;;;5092678;28;20390;-65
2021/01/07 00:34:47;;;;;;;20.50;2.45;;;13.50;99.90;;;;;;5092313;28;20075;-65
2021/01/07 00:37:14;;;;;;;16.02;2.47;;;13.60;99.90;;;;;;5110608;28;20047;-64
2021/01/07 00:39:42;;;;;;;8.10;1.73;;;13.60;99.90;;;;;;5112990;28;20065;-64
2021/01/07 00:42:10;;;;;;;8.23;2.45;;;13.60;99.90;;;;;;5111757;28;20047;-65
2021/01/07 00:44:38;;;;;;;18.70;3.65;;;13.60;99.90;;;;;;5094422;28;20043;-65
2021/01/07 00:47:05;;;;;;;19.67;2.92;;;13.60;99.90;;;;;;5111414;28;20044;-65
2021/01/07 00:49:36;;;;;;;15.55;2.72;;;13.60;99.90;;;;;;5111099;28;20040;-65
2021/01/07 00:52:04;;;;;;;27.08;3.42;;;13.60;99.90;;;;;;5095072;28;20063;-65
2021/01/07 00:54:34;;;;;;;22.70;2.78;;;13.60;99.90;;;;;;5112322;28;20062;-64
2021/01/07 00:57:03;;;;;;;15.82;3.20;;;13.60;99.90;;;;;;5091131;28;20121;-64
2021/01/07 00:59:31;;;;;;;13.73;2.75;;;13.60;99.90;;;;;;5092432;28;20048;-69
2021/01/07 01:01:59;;;;;;;15.65;3.53;;;13.60;99.90;;;;;;5095671;28;20538;-65
2021/01/07 01:04:27;;;;;;;16.90;2.13;;;13.60;99.90;;;;;;5094298;28;20060;-65
2021/01/07 01:06:55;;;;;;;10.95;2.63;;;13.60;99.90;;;;;;5108736;28;20047;-65
2021/01/07 01:09:23;;;;;;;11.82;2.58;;;13.60;99.90;;;;;;5115163;28;20052;-65
2021/01/07 01:11:50;;;;;;;6.72;1.30;;;13.60;99.90;;;;;;5115262;28;20052;-65
2021/01/07 01:14:20;;;;;;;14.77;2.60;;;13.60;99.90;;;;;;5114777;28;20090;-65
2021/01/07 01:16:49;;;;;;;9.48;1.95;;;13.60;99.90;;;;;;5103592;28;20504;-65
2021/01/07 01:19:18;;;;;;;14.10;2.65;;;13.60;99.90;;;;;;5095853;28;20048;-65
2021/01/07 01:21:51;;;;;;;24.38;2.22;;;13.60;99.90;;;;;;5095850;28;20055;-65
2021/01/07 01:24:20;;;;;;;19.85;3.05;;;13.70;99.90;;;;;;5094076;28;20048;-65
2021/01/07 01:27:00;;;;;;;17.27;2.58;;;13.70;99.90;;;;;;5105803;28;20075;-65
2021/01/07 01:29:30;;;;;;;15.43;1.70;;;13.70;99.90;;;;;;5105387;28;20139;-65
2021/01/07 01:31:59;;;;;;;11.13;3.92;;;13.70;99.90;;;;;;5095592;28;20054;-65
2021/01/07 01:34:29;;;;;;;12.75;1.45;;;13.70;99.90;;;;;;5092990;27;20083;-65
2021/01/07 01:37:04;;;;;;;18.50;3.10;;;13.70;99.90;;;;;;5106701;28;20047;-65
2021/01/07 01:39:32;;;;;;;10.15;1.90;;;13.80;99.90;;;;;;5114178;28;20586;-64
2021/01/07 01:42:00;;;;;;;10.20;1.75;;;13.70;99.90;;;;;;5097331;28;20138;-65
2021/01/07 01:44:27;;;;;;;10.18;1.70;;;13.80;99.90;;;;;;5113308;28;20051;-65
2021/01/07 01:46:55;;;;;;;13.27;2.53;;;13.80;99.90;;;;;;5114968;28;20550;-64
2021/01/07 01:49:24;;;;;;;22.48;2.88;;;13.80;99.90;;;;;;5114218;28;20058;-64
2021/01/07 01:51:51;;;;;;;8.13;1.25;;;13.80;99.90;;;;;;5115370;28;20043;-65
2021/01/07 01:54:19;;;;;;;13.73;1.92;;;13.80;99.90;;;;;;5097415;27;20079;-65
2021/01/07 01:56:51;;;;;;;28.58;2.58;;;13.70;99.90;;;;;;5093636;28;20054;-65
2021/01/07 01:59:22;;;;;;;35.88;5.70;;;13.70;99.90;;;;;;5093898;27;20048;-65
2021/01/07 02:01:50;;;;;;;12.25;2.13;;;13.70;99.90;;;;;;5094593;28;20057;-65
2021/01/07 02:04:18;;;;;;;15.00;1.98;;;13.70;99.90;;;;;;5110746;28;20500;-65
2021/01/07 02:06:47;;;;;;;25.58;3.22;;;13.70;99.90;;;;;;5114763;28;20130;-65
2021/01/07 02:09:16;;;;;;;16.65;3.35;;;13.70;99.90;;;;;;5115162;28;20099;-65
2021/01/07 02:11:43;;;;;;;16.65;3.33;;;13.70;99.90;;;;;;5113933;28;20051;-65
2021/01/07 02:14:11;;;;;;;20.77;5.05;;;13.70;99.90;;;;;;5098823;28;20047;-64
2021/01/07 02:16:39;;;;;;;11.65;1.85;;;13.70;99.90;;;;;;5094710;28;20052;-64
2021/01/07 02:19:07;;;;;;;17.92;2.10;;;13.80;99.90;;;;;;5094660;28;20052;-64
2021/01/07 02:21:38;;;;;;;8.55;1.15;;;13.80;99.90;;;;;;5094943;28;20048;-64
2021/01/07 02:24:07;;;;;;;22.00;2.35;;;13.80;99.90;;;;;;5060482;28;20048;-65
2021/01/07 02:26:35;;;;;;;16.75;1.98;;;13.80;99.90;;;;;;5094520;28;20048;-64
2021/01/07 02:29:03;;;;;;;18.83;3.22;;;13.80;99.90;;;;;;5076477;28;20143;-65
2021/01/07 02:31:31;;;;;;;21.13;2.22;;;13.80;99.90;;;;;;5094870;28;20048;-65
2021/01/07 02:33:59;;;;;;;17.98;1.83;;;13.80;99.90;;;;;;5105164;28;20048;-65
2021/01/07 02:36:27;;;;;;;11.00;2.97;;;13.80;99.90;;;;;;5096748;28;20051;-64
2021/01/07 02:38:55;;;;;;;15.35;2.40;;;13.80;99.90;;;;;;5113465;28;20078;-65
2021/01/07 02:41:23;;;;;;;14.60;3.20;;;13.80;99.90;;;;;;5112827;28;20051;-65
2021/01/07 02:43:51;;;;;;;12.75;3.13;;;13.80;99.90;;;;;;5114091;28;20075;-64
2021/01/07 02:46:18;;;;;;;20.30;4.82;;;13.80;99.90;;;;;;5077679;28;20051;-64
2021/01/07 02:48:46;;;;;;;9.50;1.67;;;13.90;99.90;;;;;;5094012;28;20051;-65
2021/01/07 02:51:14;;;;;;;13.77;2.17;;;13.80;99.90;;;;;;5092681;28;20044;-65
2021/01/07 02:53:42;;;;;;;25.92;4.00;;;13.90;99.90;;;;;;5093526;28;20055;-64
2021/01/07 02:56:10;;;;;;;27.48;4.25;;;13.80;99.90;;;;;;5110133;28;20058;-64
2021/01/07 02:58:38;;;;;;;19.95;2.63;;;13.80;99.90;;;;;;5113137;28;20047;-65
2021/01/07 03:01:07;;;;;;;12.32;1.92;;;13.80;99.90;;;;;;5095520;28;20067;-64
2021/01/07 03:03:35;;;;;;;20.58;4.13;;;13.90;99.90;;;;;;5112861;28;20055;-65
2021/01/07 03:06:03;;;;;;;20.52;2.80;;;13.90;99.90;;;;;;5097834;28;20148;-64
2021/01/07 03:08:31;;;;;;;17.55;3.38;;;13.90;99.90;;;;;;5093613;28;20515;-64
2021/01/07 03:10:58;;;;;;;21.13;3.47;;;13.90;99.90;;;;;;5090955;28;20127;-64
2021/01/07 03:13:26;;;;;;;24.35;4.03;;;13.90;99.90;;;;;;5091490;28;20134;-64
2021/01/07 03:15:54;;;;;;;18.67;2.70;;;13.90;99.90;;;;;;5106786;28;20045;-65
2021/01/07 03:18:22;;;;;;;29.40;2.60;;;13.90;99.90;;;;;;5113683;28;20100;-64
2021/01/07 03:20:49;;;;;;;19.15;2.65;;;13.90;99.90;;;;;;5113038;28;20040;-64
2021/01/07 03:23:17;;;;;;;17.67;2.97;;;13.90;99.90;;;;;;5111844;28;20055;-64
2021/01/07 03:25:45;;;;;;;26.08;4.88;;;14.00;99.90;;;;;;5101196;28;20044;-65
2021/01/07 03:28:13;;;;;;;13.57;2.22;;;13.90;99.90;;;;;;5091093;28;20442;-64
2021/01/07 03:30:40;;;;;;;17.10;1.90;;;14.00;99.90;;;;;;5092111;28;20169;-64
2021/01/07 03:33:08;;;;;;;28.45;1.67;;;13.90;99.90;;;;;;5091796;28;20040;-64
2021/01/07 03:35:36;;;;;;;18.00;4.57;;;13.90;99.90;;;;;;5102416;28;20039;-64
2021/01/07 03:38:03;;;;;;;16.25;2.08;;;13.90;99.90;;;;;;5106950;28;20078;-64
2021/01/07 03:40:33;;;;;;;27.52;3.88;;;13.90;99.90;;;;;;5093631;28;20052;-64
2021/01/07 03:43:01;;;;;;;18.90;3.78;;;13.90;99.90;;;;;;5091932;28;20076;-65
2021/01/07 03:45:29;;;;;;;14.30;2.05;;;14.00;99.90;;;;;;5101857;28;20488;-64
2021/01/07 03:47:57;;;;;;;23.30;3.20;;;14.00;99.90;;;;;;5111943;28;20516;-64
2021/01/07 03:50:28;;;;;;;15.57;2.28;;;14.00;99.90;;;;;;5112329;28;20044;-64
2021/01/07 03:52:58;;;;;;;16.80;2.83;;;14.00;99.90;;;;;;5095976;28;20074;-65
2021/01/07 03:55:25;;;;;;;18.10;3.13;;;14.00;99.90;;;;;;5104094;28;20052;-64
2021/01/07 03:57:54;;;;;;;16.20;3.25;;;14.00;99.90;;;;;;5091560;28;20056;-65
2021/01/07 04:00:22;;;;;;;24.60;3.40;;;14.10;99.90;;;;;;5093281;28;20454;-64
2021/01/07 04:02:49;;;;;;;17.95;2.40;;;14.10;99.90;;;;;;5093044;28;20052;-65
2021/01/07 04:05:17;;;;;;;9.80;1.90;;;14.10;99.90;;;;;;5098591;28;20051;-64
2021/01/07 04:07:45;;;;;;;18.10;3.22;;;14.10;99.90;;;;;;5112077;28;20051;-63
2021/01/07 04:10:12;;;;;;;22.95;3.00;;;14.10;99.90;;;;;;5112176;28;20051;-64
2021/01/07 04:12:40;;;;;;;21.85;3.92;;;14.10;99.90;;;;;;5112434;28;20442;-64
2021/01/07 04:15:08;;;;;;;16.45;2.70;;;14.10;99.90;;;;;;5107621;28;20508;-64
2021/01/07 04:17:36;;;;;;;18.95;3.15;;;14.10;99.90;;;;;;5091765;28;20052;-64
2021/01/07 04:20:05;;;;;;;15.55;3.03;;;14.20;99.90;;;;;;5092477;28;20056;-64
2021/01/07 04:22:37;;;;;;;17.63;3.15;;;14.20;99.90;;;;;;5091476;28;20056;-64
2021/01/07 04:25:05;;;;;;;43.70;16.77;;;14.20;99.90;;;;;;5096083;28;20052;-64
2021/01/07 04:27:33;;;;;;;31.63;13.73;;;14.10;99.90;;;;;;5111422;28;20052;-64
2021/01/07 04:30:02;;;;;;;36.33;10.02;;;14.10;99.90;;;;;;5111842;28;20051;-64
2021/01/07 04:32:32;;;;;;;29.58;6.53;;;14.10;99.90;;;;;;5113062;28;20044;-64
2021/01/07 04:35:01;;;;;;;18.05;4.57;;;14.10;99.90;;;;;;5107973;28;20550;-64
2021/01/07 04:37:29;;;;;;;21.17;5.18;;;14.10;99.90;;;;;;5096608;28;20113;-64
2021/01/07 04:39:56;;;;;;;18.35;4.93;;;14.10;99.90;;;;;;5096397;28;20618;-64
2021/01/07 04:42:24;;;;;;;25.20;3.55;;;14.10;99.90;;;;;;5096287;28;20051;-64
2021/01/07 04:44:52;;;;;;;14.30;2.92;;;14.10;99.90;;;;;;5097789;28;20040;-64
2021/01/07 04:47:20;;;;;;;17.15;3.53;;;14.10;99.90;;;;;;5098881;28;20044;-64
2021/01/07 04:49:49;;;;;;;28.98;3.85;;;14.10;99.90;;;;;;5114067;28;20043;-64
2021/01/07 04:52:17;;;;;;;22.45;2.40;;;14.10;99.90;;;;;;5116733;28;20051;-64
2021/01/07 04:54:45;;;;;;;18.02;2.58;;;14.10;99.90;;;;;;5097750;28;20511;-65
2021/01/07 04:57:14;;;;;;;19.58;3.38;;;14.10;99.90;;;;;;5095852;28;20079;-65
2021/01/07 04:59:41;;;;;;;13.07;2.20;;;14.10;99.90;;;;;;5111502;28;20051;-65
2021/01/07 05:02:09;;;;;;;14.90;2.70;;;14.10;99.90;;;;;;5116529;28;20052;-64
2021/01/07 05:05:06;;;;;;;18.83;2.38;;;14.00;99.90;;;;;;5108027;28;20048;-65
2021/01/07 05:07:40;;;;;;;17.05;2.70;;;13.90;99.90;;;;;;5102771;28;20692;-65
2021/01/07 05:10:12;;;;;;;13.35;2.55;;;13.80;99.90;;;;;;5096087;28;20556;-65
2021/01/07 05:12:40;;;;;;;11.07;3.60;;;13.80;99.90;;;;;;5097235;28;20073;-65
2021/01/07 05:15:09;;;;;;;19.52;5.15;;;13.70;99.90;;;;;;5110789;28;20071;-65
2021/01/07 05:17:38;;;;;;;13.55;2.70;;;13.70;99.90;;;;;;5094552;28;20044;-64
2021/01/07 05:20:11;;;;;;;22.25;3.67;;;13.70;99.90;;;;;;5114116;28;20055;-65
2021/01/07 05:22:43;;;;;;;19.42;2.15;;;13.70;99.90;;;;;;5112350;27;20079;-64
2021/01/07 05:25:12;;;;;;;19.50;4.03;;;13.70;99.90;;;;;;5096714;28;20048;-64
2021/01/07 05:27:41;;;;;;;17.42;2.90;;;13.70;99.90;;;;;;5112177;28;20101;-64
2021/01/07 05:30:11;;;;;;;15.57;3.28;;;13.70;99.90;;;;;;5095350;28;20070;-64
2021/01/07 05:32:41;;;;;;;22.95;2.88;;;13.80;99.90;;;;;;5094950;28;20044;-66
2021/01/07 05:35:15;;;;;;;22.60;3.15;;;13.80;99.90;;;;;;5112421;28;20059;-63
2021/01/07 05:37:43;;;;;;;13.70;2.47;;;13.80;99.90;;;;;;5096279;28;20138;-65
2021/01/07 05:40:12;;;;;;;16.77;3.00;;;13.90;99.90;;;;;;5094178;28;20048;-65
2021/01/07 05:42:41;;;;;;;26.70;2.67;;;13.90;99.90;;;;;;5095980;28;20051;-65
2021/01/07 05:45:11;;;;;;;17.10;4.03;;;13.90;99.90;;;;;;5113244;28;20522;-65
2021/01/07 05:47:49;;;;;;;25.92;6.40;;;13.90;99.90;;;;;;5093904;28;20076;-65
2021/01/07 05:50:20;;;;;;;13.23;2.20;;;13.70;99.90;;;;;;5115690;28;20126;-63
2021/01/07 05:52:49;;;;;;;15.05;2.83;;;13.50;99.90;;;;;;5113214;28;20104;-64
2021/01/07 05:55:18;;;;;;;21.10;3.97;;;13.30;99.90;;;;;;5094294;28;20131;-64
2021/01/07 05:57:46;;;;;;;18.60;2.58;;;13.20;99.90;;;;;;5113836;28;20048;-65
2021/01/07 06:00:17;;;;;;;17.33;3.15;;;13.10;99.90;;;;;;5077194;28;20052;-64
2021/01/07 06:02:45;;;;;;;20.08;2.83;;;13.00;99.90;;;;;;5094822;28;20060;-65
2021/01/07 06:05:15;;;;;;;11.38;3.90;;;12.90;99.90;;;;;;5111990;28;20047;-65
2021/01/07 06:07:43;;;;;;;16.45;2.75;;;12.80;99.90;;;;;;5093787;28;20051;-65
2021/01/07 06:10:12;;;;;;;13.85;2.45;;;12.70;99.90;;;;;;5114025;28;20090;-64
2021/01/07 06:12:40;;;;;;;14.63;2.40;;;12.60;99.90;;;;;;5114139;28;20090;-64
2021/01/07 06:15:11;;;;;;;11.55;2.13;;;12.60;99.90;;;;;;5112790;28;20055;-64
2021/01/07 06:17:40;;;;;;;8.27;3.05;;;12.70;99.90;;;;;;5094697;28;20062;-63
2021/01/07 06:20:34;;;;;;;6.75;1.38;;;12.70;99.90;;;;;;5110376;28;20057;-64
2021/01/07 06:23:04;;;;;;;9.48;1.98;;;12.70;99.90;;;;;;5108638;28;20059;-63
2021/01/07 06:25:32;;;;;;;10.40;2.28;;;12.70;99.90;;;;;;5095613;28;20043;-64
2021/01/07 06:28:00;;;;;;;8.45;1.67;;;12.70;99.90;;;;;;5109930;28;20109;-64
2021/01/07 06:30:28;;;;;;;9.15;2.08;;;12.80;99.90;;;;;;5093440;28;20059;-63
2021/01/07 06:33:09;;;;;;;14.27;2.67;;;12.80;99.90;;;;;;5095268;28;20036;-64
2021/01/07 06:35:42;;;;;;;13.40;3.28;;;12.90;99.90;;;;;;5093631;28;20483;-64
2021/01/07 06:38:23;;;;;;;7.22;2.35;;;13.00;99.90;;;;;;5097989;28;20126;-64
2021/01/07 06:40:51;;;;;;;10.02;2.15;;;13.10;99.90;;;;;;5113493;28;20050;-64
2021/01/07 06:43:19;;;;;;;6.70;1.75;;;13.00;99.90;;;;;;5112142;28;20043;-64
2021/01/07 06:45:52;;;;;;;6.07;1.58;;;12.80;99.90;;;;;;5107820;28;20052;-63
2021/01/07 06:48:30;;;;;;;20.88;2.85;;;12.90;99.90;;;;;;5093111;28;20054;-64
2021/01/07 06:50:59;;;;;;;7.72;1.58;;;12.90;99.90;;;;;;5128469;27;20043;-65
2021/01/07 06:53:27;;;;;;;8.48;2.63;;;12.90;99.90;;;;;;5093383;27;20389;-64
2021/01/07 06:56:14;;;;;;;5.00;2.15;;;13.00;99.90;;;;;;5112945;28;20052;-64
2021/01/07 06:58:44;;;;;;;10.50;2.35;;;13.10;99.90;;;;;;5105572;28;20044;-65
2021/01/07 07:01:17;;;;;;;4.15;2.05;;;13.20;99.90;;;;;;5112319;28;20048;-65
2021/01/07 07:03:53;;;;;;;5.25;1.95;;;13.20;99.90;;;;;;5108091;28;20121;-64
2021/01/07 07:06:25;;;;;;;6.38;2.10;;;13.20;99.90;;;;;;5093803;28;20052;-64
2021/01/07 07:08:53;;;;;;;9.02;3.10;;;13.20;99.90;;;;;;5099778;28;20047;-65
2021/01/07 07:11:33;;;;;;;12.35;2.28;;;13.20;99.90;;;;;;5112906;28;20047;-65
2021/01/07 07:14:07;;;;;;;10.27;2.80;;;13.20;99.90;;;;;;5110709;28;20538;-65
2021/01/07 07:16:37;;;;;;;10.45;2.25;;;13.20;99.90;;;;;;5111588;28;20077;-65
2021/01/07 07:19:08;;;;;;;7.00;2.53;;;13.30;99.90;;;;;;5110316;28;20054;-65
2021/01/07 07:21:36;;;;;;;4.45;1.58;;;13.30;99.90;;;;;;5109475;28;20044;-63
2021/01/07 07:24:10;;;;;;;7.40;1.90;;;13.40;99.90;;;;;;5096314;28;20048;-65
2021/01/07 07:26:44;;;;;;;10.52;2.33;;;13.50;99.90;;;;;;5104206;28;20040;-64
2021/01/07 07:29:13;;;;;;;9.07;2.75;;;13.50;99.90;;;;;;5094477;28;20044;-64
2021/01/07 07:31:46;;;;;;;10.35;2.38;;;13.60;99.90;;;;;;5098513;28;20039;-64
2021/01/07 07:34:16;;;;;;;9.60;3.05;;;13.70;99.90;;;;;;5113393;28;20468;-64
2021/01/07 07:36:44;;;;;;;6.72;2.95;;;13.70;99.90;;;;;;5102110;28;20052;-64
2021/01/07 07:39:16;;;;;;;5.82;2.15;;;13.70;99.90;;;;;;5099236;28;20059;-64
2021/01/07 07:41:45;;;;;;;4.03;1.65;;;13.60;99.90;;;;;;5111452;28;20055;-63
2021/01/07 07:44:14;;;;;;;6.10;1.10;;;13.50;99.90;;;;;;5095473;28;20056;-64
2021/01/07 07:46:44;;;;;;;3.38;1.20;;;13.50;99.90;;;;;;5096384;28;20044;-64
2021/01/07 07:49:12;;;;;;;9.07;1.73;;;13.50;99.90;;;;;;5098997;28;20122;-64
2021/01/07 07:51:40;;;;;;;4.15;1.38;;;13.50;99.90;;;;;;5111128;28;20127;-64
2021/01/07 07:54:10;;;;;;;8.25;2.60;;;13.50;99.90;;;;;;5096808;28;20152;-64
2021/01/07 07:56:40;;;;;;;5.75;1.50;;;13.60;99.90;;;;;;5102953;28;20119;-64
2021/01/07 07:59:17;;;;;;;5.95;1.77;;;13.70;99.90;;;;;;5088165;28;20097;-63
2021/01/07 08:01:49;;;;;;;5.45;1.35;;;13.80;99.90;;;;;;5105565;28;20042;-63
2021/01/07 08:04:23;;;;;;;14.63;1.90;;;13.90;99.90;;;;;;5108643;28;20058;-63
2021/01/07 08:06:52;;;;;;;5.18;0.85;;;14.10;99.90;;;;;;5101741;28;20713;-64
2021/01/07 08:09:21;;;;;;;9.02;2.22;;;14.30;99.90;;;;;;5113167;28;20420;-65
2021/01/07 08:11:53;;;;;;;3.67;0.90;;;14.50;99.90;;;;;;5110180;28;20036;-64
2021/01/07 08:14:23;;;;;;;6.50;0.90;;;14.70;99.90;;;;;;5103370;28;20083;-63
2021/01/07 08:17:02;;;;;;;2.67;0.85;;;14.80;99.90;;;;;;5098811;28;20079;-62
2021/01/07 08:19:36;;;;;;;5.47;0.85;;;14.70;99.90;;;;;;5082969;28;20051;-63
2021/01/07 08:22:04;;;;;;;7.63;1.45;;;14.40;99.90;;;;;;5117253;28;20086;-64
2021/01/07 08:24:32;;;;;;;5.38;0.80;;;14.20;99.90;;;;;;5116908;28;20518;-63
2021/01/07 08:27:17;;;;;;;13.75;1.35;;;14.20;99.90;;;;;;5115663;28;20448;-63
2021/01/07 08:29:49;;;;;;;5.30;0.90;;;14.20;99.90;;;;;;5117316;28;20453;-64
2021/01/07 08:32:20;;;;;;;1.48;0.55;;;14.20;99.90;;;;;;5117211;28;20397;-63
2021/01/07 08:34:49;;;;;;;6.50;0.80;;;14.20;99.90;;;;;;5115574;28;20055;-64
2021/01/07 08:37:22;;;;;;;6.57;1.45;;;14.20;99.90;;;;;;5115926;28;20071;-63
2021/01/07 08:39:50;;;;;;;11.15;1.88;;;14.20;99.90;;;;;;5117094;28;20128;-63
2021/01/07 08:42:18;;;;;;;13.52;1.42;;;14.30;99.90;;;;;;5117213;28;20135;-63
2021/01/07 08:44:46;;;;;;;4.40;0.82;;;14.40;99.90;;;;;;5115285;28;20047;-63
2021/01/07 08:47:24;;;;;;;6.45;0.75;;;14.60;99.90;;;;;;5116984;28;20048;-63
2021/01/07 08:50:07;;;;;;;5.50;1.20;;;14.70;99.90;;;;;;5098726;28;20044;-63
2021/01/07 08:52:58;;;;;;;5.75;2.13;;;14.70;99.90;;;;;;5116854;28;20510;-63
2021/01/07 08:55:48;;;;;;;5.25;2.15;;;14.70;99.90;;;;;;5116460;28;20051;-63
2021/01/07 08:58:26;;;;;;;2.60;0.57;;;14.70;99.90;;;;;;5116715;27;20055;-63
2021/01/07 09:00:54;;;;;;;4.60;1.13;;;14.80;99.90;;;;;;5116724;28;20085;-63
2021/01/07 09:04:21;;;;;;;7.35;1.65;;;14.80;99.90;;;;;;5116113;28;20096;-64
2021/01/07 09:06:57;;;;;;;5.38;1.65;;;15.00;99.90;;;;;;5115454;28;20047;-64
2021/01/07 09:09:27;;;;;;;5.13;0.60;;;14.90;99.90;;;;;;5116616;28;20040;-63
2021/01/07 09:12:12;;;;;;;4.50;0.60;;;14.80;99.90;;;;;;5116548;28;20097;-63
2021/01/07 09:14:50;;;;;;;4.50;0.57;;;14.80;99.90;;;;;;5115979;28;20135;-63
2021/01/07 09:17:37;;;;;;;9.40;1.73;;;14.80;99.90;;;;;;5116358;28;20083;-63
2021/01/07 09:20:06;;;;;;;13.38;2.05;;;14.80;99.90;;;;;;5116347;28;20051;-63
2021/01/07 09:22:34;;;;;;;8.02;0.88;;;15.00;99.90;;;;;;5115398;28;20083;-63
2021/01/07 09:25:03;;;;;;;16.23;1.58;;;15.10;99.90;;;;;;5115684;28;20515;-63
2021/01/07 09:27:31;;;;;;;2.55;0.73;;;15.10;99.90;;;;;;5116240;28;20055;-63
2021/01/07 09:29:59;;;;;;;7.07;1.00;;;14.90;99.90;;;;;;5114920;28;20047;-63
2021/01/07 09:32:28;;;;;;;6.53;0.88;;;14.80;99.90;;;;;;5116014;28;20046;-63
2021/01/07 09:34:56;;;;;;;8.32;1.77;;;14.70;99.90;;;;;;5115533;28;20126;-63
2021/01/07 09:37:24;;;;;;;4.15;0.98;;;14.60;99.90;;;;;;5115954;28;20096;-64
2021/01/07 09:39:56;;;;;;;2.00;0.60;;;14.60;99.90;;;;;;5116232;28;20523;-64
2021/01/07 09:42:31;;;;;;;5.38;1.02;;;14.70;99.90;;;;;;5115852;28;20479;-64
2021/01/07 09:45:00;;;;;;;7.97;0.63;;;14.60;99.90;;;;;;5115212;28;20048;-63
2021/01/07 09:47:29;;;;;;;2.50;0.98;;;14.50;99.90;;;;;;5115732;28;20054;-63
2021/01/07 09:49:58;;;;;;;5.20;0.63;;;14.40;99.90;;;;;;5115724;28;20093;-63
2021/01/07 09:52:27;;;;;;;6.50;0.50;;;14.40;99.90;;;;;;5115714;28;20066;-63
2021/01/07 09:54:55;;;;;;;3.88;0.77;;;14.40;99.90;;;;;;5115035;28;20493;-63
2021/01/07 09:57:26;;;;;;;4.75;0.80;;;14.40;99.90;;;;;;5114522;28;20073;-64
2021/01/07 09:59:54;;;;;;;5.80;1.05;;;14.50;99.90;;;;;;5115530;28;20132;-63
2021/01/07 10:02:24;;;;;;;3.67;0.45;;;14.50;99.90;;;;;;5115550;28;20084;-63
2021/01/07 10:04:52;;;;;;;5.85;0.68;;;14.60;99.90;;;;;;5114812;28;20484;-63
2021/01/07 10:07:20;;;;;;;5.38;0.43;;;14.50;99.90;;;;;;5114206;28;20449;-64
2021/01/07 10:09:49;;;;;;;8.13;1.13;;;14.60;99.90;;;;;;5114156;28;20047;-63
2021/01/07 10:12:17;;;;;;;13.43;2.78;;;14.60;99.90;;;;;;5114167;28;20040;-64
2021/01/07 10:14:45;;;;;;;4.22;0.50;;;14.60;99.90;;;;;;5115054;28;20139;-63
2021/01/07 10:17:13;;;;;;;5.93;0.88;;;14.50;99.90;;;;;;5115131;28;20416;-64
2021/01/07 10:19:41;;;;;;;3.75;0.55;;;14.50;99.90;;;;;;5115210;28;20086;-63
2021/01/07 10:22:17;;;;;;;4.72;0.57;;;14.50;99.90;;;;;;5113985;28;20078;-64
2021/01/07 10:24:48;;;;;;;7.03;0.50;;;14.60;99.90;;;;;;5114671;28;20431;-63
2021/01/07 10:27:19;;;;;;;5.70;1.25;;;14.60;99.90;;;;;;5115329;27;20044;-63
2021/01/07 10:29:47;;;;;;;6.90;0.90;;;14.50;99.90;;;;;;5114986;28;20051;-63
2021/01/07 10:32:19;;;;;;;6.00;0.95;;;14.60;99.90;;;;;;5114457;28;20040;-63
2021/01/07 10:34:51;;;;;;;2.55;0.50;;;14.70;99.90;;;;;;5114030;28;20053;-63
2021/01/07 10:37:21;;;;;;;4.20;0.40;;;14.80;99.90;;;;;;5114824;28;20047;-63
2021/01/07 10:39:51;;;;;;;7.20;1.05;;;14.60;99.90;;;;;;5113649;28;20123;-63
2021/01/07 10:42:20;;;;;;;4.68;1.60;;;14.70;99.90;;;;;;5114718;28;20415;-63
2021/01/07 10:44:50;;;;;;;4.00;0.80;;;14.70;99.90;;;;;;5112973;28;20047;-63
2021/01/07 10:47:23;;;;;;;5.97;1.42;;;14.70;99.90;;;;;;5114712;28;20054;-63
2021/01/07 10:49:52;;;;;;;2.35;0.50;;;14.80;99.90;;;;;;5114639;28;20055;-63
2021/01/07 10:52:43;;;;;;;5.13;1.30;;;14.80;99.90;;;;;;5114436;28;20488;-63
2021/01/07 10:55:24;;;;;;;2.97;0.55;;;14.80;99.90;;;;;;5112789;28;20051;-63
2021/01/07 10:57:58;;;;;;;6.05;0.52;;;14.80;99.90;;;;;;5114492;28;20104;-63
2021/01/07 11:00:55;;;;;;;5.95;0.63;;;14.80;99.90;;;;;;5114383;28;20051;-63
2021/01/07 11:03:54;;;;;;;2.22;0.50;;;14.70;99.90;;;;;;5106309;28;20113;-63
2021/01/07 11:06:27;;;;;;;10.25;1.25;;;14.60;99.90;;;;;;5092796;28;20118;-63
2021/01/07 11:09:04;;;;;;;6.28;0.88;;;14.70;99.90;;;;;;5110603;27;20039;-63
2021/01/07 11:11:39;;;;;;;1.95;0.40;;;14.80;99.90;;;;;;5093787;28;21576;-64
2021/01/07 11:14:28;;;;;;;6.85;0.85;;;14.90;99.90;;;;;;5101776;28;20047;-66
2021/01/07 11:17:05;;;;;;;10.07;1.63;;;14.90;99.90;;;;;;5112707;28;20058;-65
2021/01/07 11:19:35;;;;;;;4.63;1.00;;;14.80;99.90;;;;;;5098779;27;20044;-65
2021/01/07 11:22:13;;;;;;;11.73;1.45;;;14.80;99.90;;;;;;5113921;28;20059;-65
2021/01/07 11:24:48;;;;;;;6.68;0.80;;;14.70;99.90;;;;;;5112693;28;20075;-66
2021/01/07 11:27:21;;;;;;;7.20;0.85;;;14.70;99.90;;;;;;5111175;28;20051;-66
2021/01/07 11:29:52;;;;;;;2.70;0.75;;;14.80;99.90;;;;;;5096550;28;20044;-65
2021/01/07 11:32:20;;;;;;;10.45;1.58;;;14.80;99.90;;;;;;5093765;28;20071;-65
2021/01/07 11:34:49;;;;;;;12.45;2.05;;;14.90;99.90;;;;;;5091746;28;20040;-66
2021/01/07 11:37:25;;;;;;;6.32;2.15;;;15.10;99.90;;;;;;5096778;28;20493;-66
2021/01/07 11:39:53;;;;;;;4.70;0.65;;;15.20;99.90;;;;;;5093236;28;20052;-65
2021/01/07 11:42:46;;;;;;;7.53;1.30;;;15.20;99.90;;;;;;5086233;28;20527;-66
2021/01/07 11:45:28;;;;;;;11.95;2.25;;;15.20;99.90;;;;;;5085055;28;20048;-66
2021/01/07 11:48:07;;;;;;;12.90;2.72;;;15.10;99.90;;;;;;5110496;28;20047;-65
2021/01/07 11:50:43;;;;;;;7.38;1.30;;;15.10;99.90;;;;;;5093887;28;20143;-65
2021/01/07 11:53:15;;;;;;;12.20;1.42;;;15.20;99.90;;;;;;5091583;28;20090;-65
2021/01/07 11:55:43;;;;;;;8.60;1.02;;;15.20;99.90;;;;;;5102552;28;20059;-66
2021/01/07 11:58:18;;;;;;;6.65;1.98;;;15.10;99.90;;;;;;5093868;28;20047;-67
2021/01/07 12:00:47;;;;;;;9.60;0.90;;;15.00;99.90;;;;;;5104904;28;20124;-66
2021/01/07 12:03:15;;;;;;;6.20;1.38;;;14.80;99.90;;;;;;5112841;28;20059;-66
2021/01/07 12:05:46;;;;;;;8.85;1.92;;;14.80;99.90;;;;;;5088266;28;20079;-66
2021/01/07 12:08:42;;;;;;;8.95;1.13;;;14.90;99.90;;;;;;5075032;28;20052;-67
2021/01/07 12:11:21;;;;;;;10.57;1.77;;;14.90;99.90;;;;;;5075675;28;20097;-66
2021/01/07 12:14:12;;;;;;;9.00;1.15;;;15.00;99.90;;;;;;5097767;28;20052;-66
2021/01/07 12:16:52;;;;;;;4.55;0.75;;;15.10;99.90;;;;;;5093185;28;20052;-67
2021/01/07 12:19:36;;;;;;;6.70;0.90;;;15.10;99.90;;;;;;5110508;28;20135;-66
2021/01/07 12:22:07;;;;;;;5.03;1.45;;;15.10;99.90;;;;;;5110023;28;20308;-66
2021/01/07 12:24:36;;;;;;;4.38;1.17;;;15.20;99.90;;;;;;5108503;28;20048;-65
2021/01/07 12:27:07;;;;;;;8.60;1.00;;;15.20;99.90;;;;;;5091411;28;20051;-66
2021/01/07 12:29:40;;;;;;;7.32;0.93;;;15.20;99.90;;;;;;5106059;28;20562;-66
2021/01/07 12:32:28;;;;;;;13.77;2.35;;;15.10;99.90;;;;;;5116433;28;20083;-64
2021/01/07 12:35:00;;;;;;;7.88;1.65;;;14.90;99.90;;;;;;5108351;28;20124;-65
2021/01/07 12:37:37;;;;;;;4.75;1.33;;;15.00;99.90;;;;;;5066879;28;20052;-66
2021/01/07 12:40:07;;;;;;;10.43;1.77;;;15.00;99.90;;;;;;5108936;28;20083;-66
2021/01/07 12:42:42;;;;;;;6.40;0.88;;;14.90;99.90;;;;;;5109813;28;20138;-66
2021/01/07 12:45:16;;;;;;;20.70;1.55;;;14.90;99.90;;;;;;5093830;28;20136;-66
2021/01/07 12:47:44;;;;;;;10.95;1.48;;;15.00;99.90;;;;;;5112540;28;20052;-65
2021/01/07 12:50:13;;;;;;;6.50;1.95;;;14.90;99.90;;;;;;5111712;28;20043;-66
2021/01/07 12:52:41;;;;;;;8.82;1.67;;;14.90;99.90;;;;;;5095053;28;20040;-66
2021/01/07 12:55:09;;;;;;;9.82;1.48;;;14.90;99.90;;;;;;5112576;28;20043;-66
2021/01/07 12:58:01;;;;;;;15.60;1.17;;;14.90;99.90;;;;;;5115060;28;20043;-65
2021/01/07 13:00:37;;;;;;;4.93;1.45;;;15.00;99.90;;;;;;5091919;28;20064;-66